createdAt,value
2023-03-10T00:00:37.364Z,1.33
2023-03-10T00:02:46.683Z,2.47
2023-03-10T00:04:52.279Z,1.58
2023-03-10T00:06:55.680Z,3.28
2023-03-10T00:08:59.542Z,2.00
2023-03-10T00:11:03.382Z,2.60
2023-03-10T00:13:08.412Z,3.08
2023-03-10T00:15:14.271Z,9.18
2023-03-10T00:17:17.703Z,2.00
2023-03-10T00:19:21.501Z,2.20
2023-03-10T00:21:27.363Z,1.10
2023-03-10T00:23:31.034Z,2.30
2023-03-10T00:25:34.592Z,4.05
2023-03-10T00:27:38.200Z,1.65
2023-03-10T00:29:43.232Z,3.40
2023-03-10T00:31:47.004Z,2.15
2023-03-10T00:33:52.317Z,2.28
2023-03-10T00:36:04.714Z,1.70
2023-03-10T00:38:08.326Z,2.45
2023-03-10T00:40:14.520Z,2.50
2023-03-10T00:42:18.086Z,1.50
2023-03-10T00:44:21.679Z,4.97
2023-03-10T00:46:26.880Z,3.00
2023-03-10T00:48:30.467Z,1.20
2023-03-10T00:50:34.040Z,1.42
2023-03-10T00:52:37.571Z,2.08
2023-03-10T00:54:42.273Z,1.55
2023-03-10T00:56:45.818Z,1.90
2023-03-10T00:58:52.843Z,2.45
2023-03-10T01:00:56.529Z,1.48
2023-03-10T01:03:01.888Z,1.17
2023-03-10T01:05:05.670Z,2.15
2023-03-10T01:07:09.131Z,3.30
2023-03-10T01:09:13.458Z,1.35
2023-03-10T01:11:18.104Z,2.15
2023-03-10T01:13:22.910Z,1.10
2023-03-10T01:15:26.438Z,1.88
2023-03-10T01:17:29.980Z,1.05
2023-03-10T01:19:34.908Z,1.05
2023-03-10T01:21:39.761Z,1.00
2023-03-10T01:23:43.436Z,1.40
2023-03-10T01:25:47.108Z,2.08
2023-03-10T01:27:50.586Z,1.10
2023-03-10T01:29:54.080Z,2.83
2023-03-10T01:31:57.601Z,2.08
2023-03-10T01:34:01.388Z,2.35
2023-03-10T01:36:09.579Z,2.55
2023-03-10T01:38:14.208Z,2.42
2023-03-10T01:40:18.909Z,2.22
2023-03-10T01:42:25.190Z,3.42
2023-03-10T01:44:28.854Z,3.90
2023-03-10T01:46:48.186Z,2.20
2023-03-10T01:48:52.012Z,1.83
2023-03-10T01:50:57.618Z,2.25
2023-03-10T01:53:02.726Z,1.60
2023-03-10T01:55:11.344Z,6.47
2023-03-10T01:57:16.479Z,2.47
2023-03-10T01:59:20.892Z,1.33
2023-03-10T02:01:24.904Z,2.50
2023-03-10T02:03:32.159Z,1.40
2023-03-10T02:05:37.930Z,3.60
2023-03-10T02:07:42.613Z,2.65
2023-03-10T02:09:50.467Z,1.90
2023-03-10T02:11:55.391Z,2.38
2023-03-10T02:13:58.976Z,2.75
2023-03-10T02:16:06.214Z,1.45
2023-03-10T02:18:12.932Z,1.58
2023-03-10T02:20:38.417Z,1.67
2023-03-10T02:22:42.439Z,1.85
2023-03-10T02:24:53.695Z,4.40
2023-03-10T02:27:03.056Z,1.65
2023-03-10T02:29:12.084Z,3.70
2023-03-10T02:31:17.131Z,1.60
2023-03-10T02:33:25.528Z,1.42
2023-03-10T02:35:29.328Z,2.40
2023-03-10T02:37:35.206Z,2.22
2023-03-10T02:39:38.548Z,6.35
2023-03-10T02:41:45.292Z,1.60
2023-03-10T02:43:52.118Z,1.95
2023-03-10T02:46:00.400Z,1.30
2023-03-10T02:48:04.085Z,2.95
2023-03-10T02:50:09.757Z,1.85
2023-03-10T02:52:22.848Z,4.35
2023-03-10T02:54:26.327Z,6.55
2023-03-10T02:56:31.193Z,1.85
2023-03-10T02:58:34.779Z,4.30
2023-03-10T03:00:39.395Z,3.72
2023-03-10T03:02:44.308Z,5.25
2023-03-10T03:04:47.859Z,4.50
2023-03-10T03:06:51.439Z,3.67
2023-03-10T03:08:55.013Z,2.97
2023-03-10T03:10:58.647Z,4.95
2023-03-10T03:13:02.577Z,1.95
2023-03-10T03:15:06.615Z,3.80
2023-03-10T03:17:10.447Z,4.25
2023-03-10T03:19:15.733Z,4.47
2023-03-10T03:21:19.536Z,5.72
2023-03-10T03:23:23.185Z,8.70
2023-03-10T03:25:28.289Z,12.52
2023-03-10T03:27:32.202Z,11.60
2023-03-10T03:29:35.514Z,13.43
2023-03-10T03:31:39.457Z,10.07
2023-03-10T03:33:43.275Z,10.00
2023-03-10T03:35:48.011Z,14.40
2023-03-10T03:37:51.792Z,11.02
2023-03-10T03:39:55.266Z,7.68
2023-03-10T03:41:58.687Z,7.15
2023-03-10T03:44:02.575Z,4.15
2023-03-10T03:46:06.389Z,7.38
2023-03-10T03:48:10.722Z,5.07
2023-03-10T03:50:16.238Z,3.92
2023-03-10T03:52:21.092Z,2.50
2023-03-10T03:54:24.756Z,4.93
2023-03-10T03:56:28.243Z,2.90
2023-03-10T03:58:32.007Z,4.38
2023-03-10T04:00:35.798Z,3.90
2023-03-10T04:02:40.020Z,2.63
2023-03-10T04:04:43.928Z,2.70
2023-03-10T04:06:47.377Z,3.00
2023-03-10T04:08:53.118Z,2.65
2023-03-10T04:10:57.132Z,3.42
2023-03-10T04:13:00.680Z,3.30
2023-03-10T04:15:04.734Z,2.95
2023-03-10T04:17:09.709Z,4.53
2023-03-10T04:19:14.485Z,5.68
2023-03-10T04:21:18.316Z,2.88
2023-03-10T04:23:22.155Z,6.28
2023-03-10T04:25:27.074Z,4.03
2023-03-10T04:27:30.749Z,3.10
2023-03-10T04:29:34.203Z,3.60
2023-03-10T04:31:37.934Z,1.90
2023-03-10T04:33:41.649Z,4.88
2023-03-10T04:35:47.777Z,3.60
2023-03-10T04:37:51.184Z,2.00
2023-03-10T04:39:54.661Z,7.53
2023-03-10T04:41:59.696Z,8.48
2023-03-10T04:44:03.317Z,3.10
2023-03-10T04:46:07.753Z,2.40
2023-03-10T04:48:11.210Z,1.90
2023-03-10T04:50:17.697Z,2.70
2023-03-10T04:52:21.153Z,1.80
2023-03-10T04:54:24.761Z,3.72
2023-03-10T04:56:28.646Z,1.73
2023-03-10T04:58:34.359Z,3.67
2023-03-10T05:00:40.159Z,9.15
2023-03-10T05:02:46.624Z,5.13
2023-03-10T05:04:50.201Z,2.17
2023-03-10T05:06:54.151Z,5.05
2023-03-10T05:08:57.988Z,3.33
2023-03-10T05:11:01.505Z,4.13
2023-03-10T05:13:05.037Z,2.00
2023-03-10T05:15:11.479Z,1.90
2023-03-10T05:17:14.939Z,1.92
2023-03-10T05:19:19.131Z,2.88
2023-03-10T05:21:23.500Z,4.20
2023-03-10T05:23:27.061Z,3.42
2023-03-10T05:25:33.067Z,4.80
2023-03-10T05:27:37.763Z,3.05
2023-03-10T05:29:41.379Z,4.13
2023-03-10T05:31:46.404Z,4.07
2023-03-10T05:33:49.884Z,4.93
2023-03-10T05:35:53.385Z,6.30
2023-03-10T05:37:56.816Z,11.02
2023-03-10T05:40:00.516Z,3.00
2023-03-10T05:42:03.949Z,2.17
2023-03-10T05:44:07.541Z,2.78
2023-03-10T05:46:12.356Z,3.83
2023-03-10T05:48:17.265Z,3.55
2023-03-10T05:50:20.932Z,3.80
2023-03-10T05:52:24.420Z,3.10
2023-03-10T05:54:28.113Z,2.80
2023-03-10T05:56:32.031Z,3.40
2023-03-10T05:58:36.123Z,4.22
2023-03-10T06:00:39.517Z,4.85
2023-03-10T06:02:43.451Z,6.88
2023-03-10T06:04:48.254Z,6.15
2023-03-10T06:06:51.845Z,2.97
2023-03-10T06:08:55.616Z,2.85
2023-03-10T06:10:59.535Z,4.40
2023-03-10T06:13:03.434Z,1.80
2023-03-10T06:15:08.562Z,5.07
2023-03-10T06:17:12.282Z,10.60
2023-03-10T06:19:15.682Z,5.10
2023-03-10T06:21:20.748Z,2.30
2023-03-10T06:23:25.898Z,3.35
2023-03-10T06:25:29.228Z,4.45
2023-03-10T06:27:32.951Z,2.20
2023-03-10T06:29:36.556Z,2.85
2023-03-10T06:31:40.040Z,7.45
2023-03-10T06:33:43.913Z,9.70
2023-03-10T06:35:47.335Z,2.90
2023-03-10T06:37:52.462Z,7.00
2023-03-10T06:39:55.924Z,2.60
2023-03-10T06:41:59.350Z,5.72
2023-03-10T06:44:03.154Z,5.25
2023-03-10T06:46:08.526Z,2.88
2023-03-10T06:48:12.602Z,3.90
2023-03-10T06:50:16.205Z,3.85
2023-03-10T06:52:19.587Z,5.50
2023-03-10T06:54:24.517Z,6.40
2023-03-10T06:56:27.850Z,2.88
2023-03-10T06:58:32.593Z,3.95
2023-03-10T07:00:36.236Z,5.45
2023-03-10T07:02:39.988Z,6.95
2023-03-10T07:04:46.908Z,4.80
2023-03-10T07:06:50.276Z,2.95
2023-03-10T07:08:54.850Z,3.55
2023-03-10T07:10:59.516Z,5.85
2023-03-10T07:13:03.335Z,3.30
2023-03-10T07:15:07.863Z,2.43
2023-03-10T07:17:12.131Z,2.73
2023-03-10T07:19:15.751Z,3.43
2023-03-10T07:21:21.117Z,2.40
2023-03-10T07:23:26.422Z,5.00
2023-03-10T07:25:29.892Z,3.40
2023-03-10T07:27:34.770Z,3.03
2023-03-10T07:29:38.160Z,5.83
2023-03-10T07:31:41.552Z,3.57
2023-03-10T07:33:45.313Z,6.37
2023-03-10T07:35:48.996Z,8.20
2023-03-10T07:37:52.916Z,3.20
2023-03-10T07:39:56.593Z,4.50
2023-03-10T07:42:00.212Z,4.10
2023-03-10T07:44:05.562Z,3.73
2023-03-10T07:46:12.109Z,5.90
2023-03-10T07:48:15.616Z,5.17
2023-03-10T07:50:20.237Z,6.37
2023-03-10T07:52:24.181Z,3.50
2023-03-10T07:54:27.685Z,8.77
2023-03-10T07:56:31.170Z,5.60
2023-03-10T07:58:34.866Z,5.77
2023-03-10T08:00:40.369Z,7.63
2023-03-10T08:02:44.778Z,3.23
2023-03-10T08:04:48.259Z,4.60
2023-03-10T08:06:52.115Z,3.87
2023-03-10T08:08:56.224Z,6.63
2023-03-10T08:11:04.187Z,3.37
2023-03-10T08:13:07.629Z,4.13
2023-03-10T08:15:13.438Z,3.37
2023-03-10T08:17:18.477Z,4.23
2023-03-10T08:19:22.105Z,11.83
2023-03-10T08:21:25.606Z,3.40
2023-03-10T08:23:28.986Z,5.33
2023-03-10T08:25:32.590Z,6.03
2023-03-10T08:27:36.534Z,7.97
2023-03-10T08:29:40.306Z,4.70
2023-03-10T08:31:43.872Z,4.13
2023-03-10T08:33:49.796Z,2.53
2023-03-10T08:36:02.193Z,2.50
2023-03-10T08:38:06.600Z,5.30
2023-03-10T08:40:12.512Z,4.73
2023-03-10T08:42:16.058Z,3.87
2023-03-10T08:44:20.688Z,6.67
2023-03-10T08:46:25.874Z,4.77
2023-03-10T08:48:29.343Z,7.00
2023-03-10T08:50:34.250Z,4.60
2023-03-10T08:52:37.558Z,5.90
2023-03-10T08:54:41.078Z,5.13
2023-03-10T08:56:44.627Z,5.03
2023-03-10T08:58:48.289Z,6.43
2023-03-10T09:00:51.826Z,4.00
2023-03-10T09:02:55.276Z,4.30
2023-03-10T09:04:58.562Z,6.80
2023-03-10T09:07:05.007Z,5.03
2023-03-10T09:09:10.166Z,4.07
2023-03-10T09:11:18.039Z,4.77
2023-03-10T09:13:21.333Z,10.67
2023-03-10T09:15:24.991Z,16.57
2023-03-10T09:17:29.294Z,4.63
2023-03-10T09:19:32.821Z,6.33
2023-03-10T09:21:36.476Z,6.17
2023-03-10T09:23:43.272Z,4.67
2023-03-10T09:25:46.748Z,4.77
2023-03-10T09:27:50.332Z,3.80
2023-03-10T09:29:53.963Z,3.37
2023-03-10T09:31:57.383Z,2.97
2023-03-10T09:34:01.299Z,3.80
2023-03-10T09:36:07.169Z,5.67
2023-03-10T09:38:11.347Z,3.33
2023-03-10T09:40:18.967Z,4.50
2023-03-10T09:42:40.450Z,3.80
2023-03-10T09:44:49.874Z,3.70
2023-03-10T09:47:05.914Z,4.37
2023-03-10T09:49:16.653Z,5.27
2023-03-10T09:51:23.729Z,6.97
2023-03-10T09:53:59.203Z,3.43
2023-03-10T09:56:12.326Z,7.53
2023-03-10T09:58:31.673Z,11.30
2023-03-10T10:00:40.207Z,4.33
2023-03-10T10:02:48.560Z,8.90
2023-03-10T10:04:57.079Z,10.27
2023-03-10T10:07:02.297Z,7.10
2023-03-10T10:09:09.995Z,5.90
2023-03-10T10:11:17.190Z,12.03
2023-03-10T10:13:23.095Z,8.13
2023-03-10T10:15:29.019Z,7.10
2023-03-10T10:17:55.141Z,6.87
2023-03-10T10:20:06.030Z,6.30
2023-03-10T10:22:16.343Z,10.83
2023-03-10T10:24:21.359Z,7.43
2023-03-10T10:26:28.357Z,7.83
2023-03-10T10:28:41.817Z,9.57
2023-03-10T10:30:45.627Z,8.17
2023-03-10T10:32:58.578Z,5.90
2023-03-10T10:35:16.039Z,3.00
2023-03-10T10:37:26.114Z,3.50
2023-03-10T10:39:33.133Z,6.63
2023-03-10T10:41:37.916Z,10.13
2023-03-10T10:43:43.601Z,4.30
2023-03-10T10:45:55.420Z,7.33
2023-03-10T10:47:58.897Z,8.43
2023-03-10T10:50:19.066Z,8.87
2023-03-10T10:52:24.766Z,5.87
2023-03-10T10:54:30.645Z,7.40
2023-03-10T10:56:34.369Z,7.90
2023-03-10T10:58:41.214Z,5.43
2023-03-10T11:00:54.752Z,6.60
2023-03-10T11:02:58.281Z,6.33
2023-03-10T11:05:14.739Z,6.40
2023-03-10T11:07:20.253Z,5.33
2023-03-10T11:09:24.782Z,6.70
2023-03-10T11:11:34.776Z,6.33
2023-03-10T11:13:53.180Z,7.23
2023-03-10T11:16:04.304Z,7.80
2023-03-10T11:18:16.544Z,7.30
2023-03-10T11:20:28.539Z,7.30
2023-03-10T11:22:41.141Z,6.60
2023-03-10T11:24:50.368Z,11.10
2023-03-10T11:27:00.417Z,8.17
2023-03-10T11:29:10.814Z,9.10
2023-03-10T11:31:26.358Z,12.67
2023-03-10T11:33:36.430Z,6.07
2023-03-10T11:35:45.785Z,9.50
2023-03-10T11:37:53.416Z,7.80
2023-03-10T11:40:07.966Z,6.23
2023-03-10T11:42:23.236Z,7.57
2023-03-10T11:44:33.194Z,10.27
2023-03-10T11:46:45.117Z,10.20
2023-03-10T11:48:58.008Z,8.40
2023-03-10T11:51:03.848Z,8.47
2023-03-10T11:53:14.720Z,8.90
2023-03-10T11:55:21.557Z,6.70
2023-03-10T11:57:26.825Z,5.47
2023-03-10T11:59:36.258Z,6.63
2023-03-10T12:01:45.141Z,7.90
2023-03-10T12:03:57.301Z,7.47
2023-03-10T12:06:02.178Z,4.70
2023-03-10T12:08:07.231Z,5.57
2023-03-10T12:10:17.267Z,5.00
2023-03-10T12:12:26.413Z,7.40
2023-03-10T12:14:31.701Z,10.53
2023-03-10T12:16:39.510Z,6.80
2023-03-10T12:18:43.135Z,6.60
2023-03-10T12:20:46.778Z,7.57
2023-03-10T12:22:51.731Z,4.30
2023-03-10T12:24:55.322Z,8.70
2023-03-10T12:27:02.384Z,4.33
2023-03-10T12:29:25.495Z,6.80
2023-03-10T12:31:49.942Z,6.40
2023-03-10T12:33:54.991Z,4.57
2023-03-10T12:36:04.930Z,3.87
2023-03-10T12:38:38.755Z,7.70
2023-03-10T12:40:52.967Z,6.23
2023-03-10T12:42:56.296Z,3.53
2023-03-10T12:45:28.666Z,6.33
2023-03-10T12:47:48.992Z,5.10
2023-03-10T12:49:56.658Z,4.03
2023-03-10T12:52:15.725Z,6.10
2023-03-10T12:55:03.448Z,7.73
2023-03-10T12:57:16.766Z,5.30
2023-03-10T12:59:26.612Z,2.50
2023-03-10T13:01:40.579Z,3.83
2023-03-10T13:03:50.302Z,6.57
2023-03-10T13:06:00.879Z,3.93
2023-03-10T13:08:13.261Z,4.50
2023-03-10T13:10:20.797Z,5.37
2023-03-10T13:12:31.206Z,5.03
2023-03-10T13:14:37.569Z,8.40
2023-03-10T13:16:41.404Z,4.27
2023-03-10T13:18:51.650Z,5.03
2023-03-10T13:20:55.222Z,3.80
2023-03-10T13:22:59.904Z,5.90
2023-03-10T13:25:05.756Z,5.30
2023-03-10T13:27:14.202Z,6.10
2023-03-10T13:29:20.749Z,5.27
2023-03-10T13:31:27.056Z,3.00
2023-03-10T13:33:32.218Z,4.43
2023-03-10T13:35:42.154Z,4.47
2023-03-10T13:37:45.991Z,5.40
2023-03-10T13:39:49.400Z,2.80
2023-03-10T13:41:55.741Z,4.20
2023-03-10T13:43:59.227Z,3.77
2023-03-10T13:46:04.539Z,6.73
2023-03-10T13:48:08.603Z,3.20
2023-03-10T13:50:16.402Z,6.00
2023-03-10T13:52:23.617Z,3.20
2023-03-10T13:54:29.827Z,3.87
2023-03-10T13:56:37.336Z,4.90
2023-03-10T13:58:40.852Z,4.63
2023-03-10T14:00:50.518Z,8.00
2023-03-10T14:02:55.175Z,4.60
2023-03-10T14:05:00.654Z,7.20
2023-03-10T14:07:11.956Z,7.40
2023-03-10T14:09:25.345Z,3.63
2023-03-10T14:11:41.198Z,6.83
2023-03-10T14:13:45.840Z,8.60
2023-03-10T14:15:55.388Z,3.60
2023-03-10T14:18:18.521Z,4.03
2023-03-10T14:20:30.700Z,5.33
2023-03-10T14:22:40.643Z,5.83
2023-03-10T14:24:45.785Z,4.03
2023-03-10T14:26:49.293Z,4.20
2023-03-10T14:28:53.103Z,6.80
2023-03-10T14:30:56.884Z,7.67
2023-03-10T14:33:02.147Z,6.70
2023-03-10T14:35:11.060Z,6.10
2023-03-10T14:37:15.174Z,3.67
2023-03-10T14:39:19.256Z,3.90
2023-03-10T14:41:26.371Z,3.90
2023-03-10T14:43:30.128Z,5.57
2023-03-10T14:45:35.727Z,3.03
2023-03-10T14:47:39.478Z,6.33
2023-03-10T14:49:43.200Z,4.60
2023-03-10T14:51:46.513Z,3.37
2023-03-10T14:53:50.036Z,7.20
2023-03-10T14:55:56.348Z,2.80
2023-03-10T14:58:04.758Z,2.50
2023-03-10T15:00:14.890Z,5.13
2023-03-10T15:02:23.016Z,4.70
2023-03-10T15:04:26.406Z,5.70
2023-03-10T15:06:29.775Z,8.53
2023-03-10T15:08:33.566Z,4.80
2023-03-10T15:10:40.238Z,5.33
2023-03-10T15:12:44.896Z,5.63
2023-03-10T15:14:54.141Z,3.20
2023-03-10T15:16:57.438Z,4.90
2023-03-10T15:19:01.082Z,7.50
2023-03-10T15:21:04.694Z,5.80
2023-03-10T15:23:08.110Z,6.63
2023-03-10T15:25:12.210Z,3.40
2023-03-10T15:27:16.299Z,6.20
2023-03-10T15:29:21.016Z,3.43
2023-03-10T15:31:25.887Z,5.50
2023-03-10T15:33:29.364Z,3.13
2023-03-10T15:35:33.622Z,3.90
2023-03-10T15:37:37.145Z,4.30
2023-03-10T15:39:40.671Z,4.93
2023-03-10T15:41:44.269Z,5.83
2023-03-10T15:43:47.764Z,2.90
2023-03-10T15:45:51.382Z,3.23
2023-03-10T15:47:56.372Z,5.17
2023-03-10T15:49:59.882Z,4.57
2023-03-10T15:52:03.655Z,3.73
2023-03-10T15:54:07.300Z,3.47
2023-03-10T15:56:11.570Z,2.87
2023-03-10T15:58:15.217Z,4.03
2023-03-10T16:00:20.702Z,2.57
2023-03-10T16:02:24.298Z,2.90
2023-03-10T16:04:29.370Z,2.83
2023-03-10T16:06:33.341Z,2.80
2023-03-10T16:08:39.025Z,7.10
2023-03-10T16:10:43.394Z,3.30
2023-03-10T16:12:46.847Z,3.27
2023-03-10T16:14:50.222Z,2.80
2023-03-10T16:16:53.636Z,2.50
2023-03-10T16:18:57.075Z,3.90
2023-03-10T16:21:03.374Z,2.50
2023-03-10T16:23:06.836Z,4.53
2023-03-10T16:25:13.389Z,2.77
2023-03-10T16:27:17.732Z,2.23
2023-03-10T16:29:21.481Z,3.90
2023-03-10T16:31:26.497Z,4.37
2023-03-10T16:33:30.145Z,8.83
2023-03-10T16:35:33.688Z,9.67
2023-03-10T16:37:38.451Z,9.93
2023-03-10T16:39:42.798Z,11.73
2023-03-10T16:41:46.105Z,12.73
2023-03-10T16:43:49.502Z,11.20
2023-03-10T16:45:52.965Z,12.40
2023-03-10T16:47:57.262Z,17.33
2023-03-10T16:50:00.652Z,29.57
2023-03-10T16:52:07.870Z,20.60
2023-03-10T16:54:15.287Z,15.73
2023-03-10T16:56:19.045Z,15.77
2023-03-10T16:58:22.442Z,11.23
2023-03-10T17:00:28.963Z,9.27
2023-03-10T17:02:32.507Z,5.73
2023-03-10T17:04:35.898Z,8.63
2023-03-10T17:06:39.710Z,6.80
2023-03-10T17:08:43.648Z,7.60
2023-03-10T17:10:48.785Z,6.00
2023-03-10T17:12:52.242Z,6.80
2023-03-10T17:14:57.861Z,13.13
2023-03-10T17:17:06.563Z,6.63
2023-03-10T17:19:14.634Z,6.00
2023-03-10T17:21:20.488Z,6.10
2023-03-10T17:23:24.860Z,14.65
2023-03-10T17:25:28.845Z,29.25
2023-03-10T17:27:33.982Z,29.38
2023-03-10T17:29:37.674Z,24.38
2023-03-10T17:31:41.388Z,30.17
2023-03-10T17:33:45.209Z,18.55
2023-03-10T17:35:48.840Z,19.02
2023-03-10T17:37:52.411Z,23.65
2023-03-10T17:39:55.860Z,18.25
2023-03-10T17:41:59.425Z,10.20
2023-03-10T17:44:05.845Z,11.07
2023-03-10T17:46:11.992Z,9.35
2023-03-10T17:48:18.404Z,8.57
2023-03-10T17:50:24.123Z,5.82
2023-03-10T17:52:27.618Z,9.35
2023-03-10T17:54:31.244Z,22.92
2023-03-10T17:56:34.845Z,23.10
2023-03-10T17:58:38.374Z,12.90
2023-03-10T18:00:43.845Z,11.25
2023-03-10T18:02:49.193Z,6.47
2023-03-10T18:04:52.915Z,10.95
2023-03-10T18:06:56.654Z,9.38
2023-03-10T18:09:01.753Z,11.40
2023-03-10T18:11:06.569Z,12.30
2023-03-10T18:13:12.294Z,10.75
2023-03-10T18:15:16.577Z,19.08
2023-03-10T18:17:21.779Z,13.65
2023-03-10T18:19:25.333Z,13.32
2023-03-10T18:21:29.798Z,11.80
2023-03-10T18:23:33.299Z,15.48
2023-03-10T18:25:43.776Z,15.57
2023-03-10T18:27:47.539Z,20.65
2023-03-10T18:29:51.972Z,12.27
2023-03-10T18:31:57.089Z,11.57
2023-03-10T18:34:03.152Z,13.85
2023-03-10T18:36:09.173Z,16.90
2023-03-10T18:38:14.438Z,21.90
2023-03-10T18:40:19.150Z,16.42
2023-03-10T18:42:24.091Z,16.90
2023-03-10T18:44:27.895Z,10.38
2023-03-10T18:46:31.936Z,10.88
2023-03-10T18:48:35.901Z,9.40
2023-03-10T18:50:41.186Z,13.57
2023-03-10T18:52:44.666Z,12.77
2023-03-10T18:54:49.094Z,7.20
2023-03-10T18:56:52.552Z,11.15
2023-03-10T18:58:56.320Z,10.18
2023-03-10T19:00:59.767Z,17.88
2023-03-10T19:03:03.460Z,13.30
2023-03-10T19:05:07.832Z,11.55
2023-03-10T19:07:14.820Z,13.63
2023-03-10T19:09:19.444Z,11.80
2023-03-10T19:11:24.555Z,11.60
2023-03-10T19:13:30.636Z,11.95
2023-03-10T19:15:34.936Z,13.98
2023-03-10T19:17:39.882Z,10.77
2023-03-10T19:19:43.770Z,6.75
2023-03-10T19:21:47.707Z,7.05
2023-03-10T19:23:53.176Z,6.50
2023-03-10T19:25:57.899Z,6.90
2023-03-10T19:28:05.281Z,6.85
2023-03-10T19:30:18.408Z,8.68
2023-03-10T19:32:23.223Z,14.48
2023-03-10T19:34:27.376Z,13.77
2023-03-10T19:36:32.578Z,12.73
2023-03-10T19:38:37.874Z,12.65
2023-03-10T19:40:47.154Z,6.47
2023-03-10T19:42:51.301Z,7.82
2023-03-10T19:44:55.515Z,6.35
2023-03-10T19:47:00.304Z,6.50
2023-03-10T19:49:07.204Z,8.82
2023-03-10T19:51:16.256Z,6.43
2023-03-10T19:53:21.564Z,7.80
2023-03-10T19:55:28.038Z,8.32
2023-03-10T19:57:33.534Z,6.47
2023-03-10T19:59:37.682Z,7.57
2023-03-10T20:01:42.519Z,7.43
2023-03-10T20:03:47.124Z,6.15
2023-03-10T20:05:50.938Z,5.38
2023-03-10T20:07:55.752Z,7.32
2023-03-10T20:09:59.874Z,5.50
2023-03-10T20:12:04.588Z,5.00
2023-03-10T20:14:10.848Z,15.30
2023-03-10T20:16:17.824Z,8.20
2023-03-10T20:18:22.234Z,6.82
2023-03-10T20:20:26.344Z,6.70
2023-03-10T20:22:30.178Z,7.15
2023-03-10T20:24:34.504Z,10.07
2023-03-10T20:26:38.669Z,7.00
2023-03-10T20:28:44.563Z,10.02
2023-03-10T20:30:50.644Z,12.43
2023-03-10T20:32:54.611Z,13.68
2023-03-10T20:34:58.294Z,10.10
2023-03-10T20:37:01.853Z,9.25
2023-03-10T20:39:05.582Z,10.38
2023-03-10T20:41:09.179Z,9.50
2023-03-10T20:43:13.082Z,8.15
2023-03-10T20:45:17.057Z,7.20
2023-03-10T20:47:22.183Z,7.05
2023-03-10T20:49:25.928Z,7.22
2023-03-10T20:51:29.619Z,7.20
2023-03-10T20:53:37.279Z,4.10
2023-03-10T20:55:43.821Z,7.70
2023-03-10T20:57:47.849Z,4.22
2023-03-10T20:59:51.718Z,4.40
2023-03-10T21:01:55.629Z,5.47
2023-03-10T21:04:01.047Z,6.20
2023-03-10T21:06:05.166Z,6.00
2023-03-10T21:08:09.040Z,4.20
2023-03-10T21:10:16.150Z,5.28
2023-03-10T21:12:21.456Z,5.07
2023-03-10T21:14:25.895Z,4.88
2023-03-10T21:16:30.078Z,7.95
2023-03-10T21:18:37.374Z,4.38
2023-03-10T21:20:43.487Z,5.15
2023-03-10T21:22:47.434Z,8.13
2023-03-10T21:24:51.788Z,5.57
2023-03-10T21:26:57.091Z,5.70
2023-03-10T21:29:01.509Z,9.38
2023-03-10T21:31:05.994Z,5.97
2023-03-10T21:33:10.031Z,5.20
2023-03-10T21:35:14.669Z,5.65
2023-03-10T21:37:20.827Z,5.03
2023-03-10T21:39:24.837Z,10.02
2023-03-10T21:41:31.076Z,7.25
2023-03-10T21:43:35.183Z,6.15
2023-03-10T21:45:39.402Z,4.15
2023-03-10T21:47:43.548Z,5.20
2023-03-10T21:49:47.676Z,4.70
2023-03-10T21:51:51.412Z,5.50
2023-03-10T21:53:57.316Z,4.97
2023-03-10T21:56:01.371Z,5.78
2023-03-10T21:58:05.848Z,5.18
2023-03-10T22:00:13.299Z,4.95
2023-03-10T22:02:25.488Z,4.68
2023-03-10T22:04:29.207Z,4.95
2023-03-10T22:06:32.910Z,4.50
2023-03-10T22:08:38.523Z,4.82
2023-03-10T22:10:43.898Z,5.35
2023-03-10T22:12:48.395Z,6.43
2023-03-10T22:14:56.495Z,6.75
2023-03-10T22:17:00.296Z,5.30
2023-03-10T22:19:04.195Z,5.30
2023-03-10T22:21:08.400Z,5.60
2023-03-10T22:23:12.104Z,5.53
2023-03-10T22:25:16.493Z,3.40
2023-03-10T22:27:22.477Z,4.40
2023-03-10T22:29:30.286Z,5.43
2023-03-10T22:31:34.537Z,4.68
2023-03-10T22:33:38.589Z,6.53
2023-03-10T22:35:42.421Z,5.22
2023-03-10T22:37:46.801Z,3.15
2023-03-10T22:39:50.608Z,3.45
2023-03-10T22:41:54.480Z,3.88
2023-03-10T22:43:59.537Z,1.30
2023-03-10T22:46:09.091Z,1.40
2023-03-10T22:48:12.892Z,3.58
2023-03-10T22:50:18.726Z,3.20
2023-03-10T22:52:22.446Z,1.42
2023-03-10T22:54:26.706Z,1.30
2023-03-10T22:56:30.341Z,1.25
2023-03-10T22:58:33.857Z,1.27
2023-03-10T23:00:39.476Z,4.60
2023-03-10T23:02:43.364Z,2.30
2023-03-10T23:04:47.148Z,1.92
2023-03-10T23:06:51.605Z,1.92
2023-03-10T23:08:55.194Z,2.00
2023-03-10T23:10:58.599Z,1.50
2023-03-10T23:13:04.854Z,1.83
2023-03-10T23:15:15.364Z,2.00
2023-03-10T23:17:28.227Z,2.08
2023-03-10T23:19:31.932Z,1.27
2023-03-10T23:21:35.945Z,0.93
2023-03-10T23:23:43.780Z,2.50
2023-03-10T23:25:51.122Z,1.35
2023-03-10T23:27:55.162Z,1.10
2023-03-10T23:29:59.537Z,1.42
2023-03-10T23:32:04.160Z,1.23
2023-03-10T23:34:09.308Z,1.08
2023-03-10T23:36:13.962Z,1.60
2023-03-10T23:38:17.891Z,1.27
2023-03-10T23:40:23.572Z,2.25
2023-03-10T23:42:27.446Z,1.10
2023-03-10T23:44:31.273Z,1.23
2023-03-10T23:46:34.977Z,1.25
2023-03-10T23:48:38.770Z,1.65
2023-03-10T23:50:45.571Z,1.85
2023-03-10T23:52:49.952Z,2.15
2023-03-10T23:54:53.655Z,1.13
2023-03-10T23:56:57.448Z,0.90
2023-03-10T23:59:01.164Z,1.40
